createdAt,value
2022-12-04T00:08:53.556Z,-0.6
2022-12-04T00:18:55.394Z,-0.7
2022-12-04T00:28:57.138Z,-0.6
2022-12-04T00:38:59.330Z,-0.6
2022-12-04T00:49:01.893Z,-0.6
2022-12-04T00:59:03.552Z,-0.6
2022-12-04T01:19:07.479Z,-0.6
2022-12-04T01:29:09.393Z,-0.7
2022-12-04T01:39:11.754Z,-0.6
2022-12-04T01:49:14.254Z,-0.6
2022-12-04T01:59:16.308Z,-0.6
2022-12-04T02:09:23.103Z,-0.6
2022-12-04T02:19:20.865Z,-0.6
2022-12-04T02:39:25.383Z,-0.6
2022-12-04T02:49:27.737Z,-0.6
2022-12-04T02:59:29.936Z,-0.6
2022-12-04T03:09:31.655Z,-0.6
2022-12-04T03:19:33.615Z,-0.5
2022-12-04T03:29:35.306Z,-0.5
2022-12-04T03:39:37.019Z,-0.5
2022-12-04T03:49:38.949Z,-0.5
2022-12-04T03:59:40.699Z,-0.5
2022-12-04T04:09:42.534Z,-0.5
2022-12-04T04:19:44.817Z,-0.4
2022-12-04T04:29:52.210Z,-0.4
2022-12-04T04:49:51.743Z,-0.3
2022-12-04T04:59:53.792Z,-0.4
2022-12-04T05:09:56.128Z,-0.4
2022-12-04T05:19:58.224Z,-0.4
2022-12-04T05:30:00.514Z,-0.5
2022-12-04T05:40:02.774Z,-0.6
2022-12-04T05:50:04.820Z,-0.6
2022-12-04T06:00:06.824Z,-0.5
2022-12-04T06:10:09.091Z,-0.5
2022-12-04T06:20:11.859Z,-0.4
2022-12-04T06:30:12.908Z,-0.4
2022-12-04T06:40:14.599Z,-0.3
2022-12-04T06:50:16.968Z,-0.3
2022-12-04T07:00:18.930Z,-0.2
2022-12-04T07:10:21.339Z,-0.1
2022-12-04T07:20:23.135Z,-0.1
2022-12-04T07:30:24.937Z,-0.1
2022-12-04T07:40:27.057Z,-0.1
2022-12-04T07:50:28.940Z,0
2022-12-04T08:00:30.676Z,0
2022-12-04T08:10:32.718Z,0
2022-12-04T08:20:34.858Z,0.1
2022-12-04T08:30:37.475Z,0.1
2022-12-04T08:50:41.758Z,0.2
2022-12-04T09:00:44.327Z,0.2
2022-12-04T09:10:46.697Z,0.3
2022-12-04T09:20:49.207Z,0.3
2022-12-04T09:30:50.882Z,0.4
2022-12-04T09:40:52.881Z,0.5
2022-12-04T09:50:55.319Z,0.5
2022-12-04T10:00:57.733Z,0.6
2022-12-04T10:10:59.674Z,0.6
2022-12-04T10:21:01.590Z,0.5
2022-12-04T10:31:03.655Z,0.5
2022-12-04T10:41:08.814Z,0.6
2022-12-04T10:51:07.114Z,0.6
2022-12-04T11:01:09.219Z,0.7
2022-12-04T11:11:11.337Z,0.8
2022-12-04T11:21:13.694Z,0.7
2022-12-04T11:31:15.872Z,0.8
2022-12-04T11:41:18.417Z,0.9
2022-12-04T11:51:20.552Z,0.9
2022-12-04T12:01:22.676Z,1
2022-12-04T12:11:24.797Z,1
2022-12-04T12:21:27.244Z,1
2022-12-04T12:31:29.155Z,1.1
2022-12-04T12:41:31.131Z,1.1
2022-12-04T12:51:32.994Z,1.1
2022-12-04T13:01:35.220Z,1.1
2022-12-04T13:11:37.785Z,1.1
2022-12-04T13:21:39.863Z,1.2
2022-12-04T13:31:41.894Z,1.2
2022-12-04T13:41:44.351Z,1.2
2022-12-04T13:51:46.309Z,1.2
2022-12-04T14:01:48.056Z,1.2
2022-12-04T14:11:49.714Z,1.2
2022-12-04T14:21:52.321Z,1.1
2022-12-04T14:31:54.946Z,1.1
2022-12-04T14:42:01.839Z,1
2022-12-04T14:51:59.213Z,1.1
2022-12-04T15:02:00.917Z,1
2022-12-04T15:12:03.477Z,1
2022-12-04T15:22:10.162Z,1
2022-12-04T15:32:07.054Z,1
2022-12-04T15:32:13.940Z,1
2022-12-04T15:42:16.182Z,1
2022-12-04T15:52:18.752Z,1
2022-12-04T16:12:22.381Z,0.9
2022-12-04T16:22:24.655Z,0.9
2022-12-04T16:32:26.540Z,0.9
2022-12-04T16:42:29.129Z,0.6
2022-12-04T16:52:31.356Z,0.5
2022-12-04T17:02:33.981Z,0.4
2022-12-04T17:12:36.288Z,0.4
2022-12-04T17:22:38.865Z,0.4
2022-12-04T17:32:40.794Z,0.4
2022-12-04T17:42:42.812Z,0.4
2022-12-04T17:52:45.142Z,0.4
2022-12-04T18:02:51.645Z,0.4
2022-12-04T18:12:49.509Z,0.3
2022-12-04T18:22:52.032Z,0.3
2022-12-04T18:32:54.570Z,0.3
2022-12-04T18:42:56.398Z,0.2
2022-12-04T18:53:01.104Z,0.3
2022-12-04T19:03:00.217Z,0.3
2022-12-04T19:13:02.778Z,0.4
2022-12-04T19:23:04.993Z,0.4
2022-12-04T19:33:06.757Z,0.4
2022-12-04T19:43:09.320Z,0.5
2022-12-04T19:53:11.855Z,0.5
2022-12-04T20:03:13.655Z,0.6
2022-12-04T20:13:15.686Z,0.6
2022-12-04T20:23:18.026Z,0.6
2022-12-04T20:33:20.176Z,0.6
2022-12-04T20:53:24.004Z,0.6
2022-12-04T21:03:26.172Z,0.6
2022-12-04T21:13:28.590Z,0.7
2022-12-04T21:23:30.532Z,0.7
2022-12-04T21:33:32.807Z,0.7
2022-12-04T21:53:41.002Z,0.7
2022-12-04T22:03:39.078Z,0.8
2022-12-04T22:13:41.363Z,0.8
2022-12-04T22:23:43.567Z,0.9
2022-12-04T22:33:45.710Z,0.9
2022-12-04T22:43:48.305Z,0.9
2022-12-04T22:53:50.455Z,1
2022-12-04T23:13:53.973Z,1
2022-12-04T23:23:56.594Z,1
2022-12-04T23:33:59.245Z,1
2022-12-04T23:44:01.244Z,1
2022-12-04T23:54:03.228Z,1
